Werte bis 5 Uhr SommerzeitDiagramme Frankenhausen: Tagesdaten Monatsdaten WindroseCSV-Datei: Frankenhausen18.csv

Wetterdaten 2018 Station: Frankenhausen
Temperaturen in °C relative Nieder- Global- Wind Wind Wind- Sonnen-
Datum Boden Boden Luft Luft Luft Luft Feuchte schlag strahlung max richtung schein
20 cm 5 cm 20 cm 2 m 2 m max 2 m min % mm W/m2*d m/s m/s ° h

17.08.2018 20,3 19,2 14,5 17,1 19,5 14,4 82 0,0 0 0,9 2,7 --- ---
16.08.2018 19,7 20,9 20,2 21,2 30,0 13,4 66 0,0 6655 2,0 10,3 --- 10,6
15.08.2018 18,7 18,9 17,9 18,8 23,3 14,3 75 0,0 2927 1,1 5,0 --- 8,0
14.08.2018 18,5 18,2 16,8 17,6 22,2 14,1 85 0,0 3031 3,0 11,1 --- 7,6
13.08.2018 19,4 18,9 16,4 17,2 22,5 13,3 75 8,1 2830 2,6 10,5 --- 7,6
12.08.2018 19,9 20,4 17,4 18,7 27,3 10,0 47 0,0 6913 2,1 7,8 --- 10,5
11.08.2018 20,0 19,6 16,0 17,0 22,3 10,5 53 0,1 5594 3,3 13,1 --- 9,8
10.08.2018 21,1 20,9 18,2 18,8 23,9 14,1 56 0,0 5924 4,3 13,4 --- 9,5
09.08.2018 23,0 23,4 21,0 21,9 32,4 15,2 75 8,1 4405 2,6 20,6 --- 7,6
08.08.2018 23,9 25,4 24,6 25,2 30,4 19,9 56 0,0 5582 3,4 13,0 --- 9,3
07.08.2018 23,3 24,9 25,2 26,6 36,1 16,0 43 0,0 6479 2,8 12,2 --- 10,1
06.08.2018 22,7 23,7 21,1 22,6 32,6 10,5 52 0,0 7406 1,7 8,2 --- 11,3
05.08.2018 23,4 24,2 21,2 21,8 26,4 15,3 64 0,0 6249 2,7 8,2 --- 10,0
04.08.2018 23,9 25,1 24,0 25,0 32,4 17,6 59 0,0 6232 2,1 8,5 --- 10,8
03.08.2018 24,0 25,7 24,7 25,9 33,8 17,3 61 0,0 7304 1,4 7,0 --- 11,3
02.08.2018 23,3 25,0 24,8 25,5 32,5 17,0 62 0,0 6798 2,0 8,7 --- 10,6
01.08.2018 22,6 23,6 23,4 24,1 30,0 17,5 63 0,0 5613 2,1 6,7 --- 10,1
31.07.2018 22,5 23,6 25,2 26,3 34,2 17,7 56 0,0 5758 2,2 7,3 --- 11,1
30.07.2018 22,1 23,3 23,9 25,1 33,7 16,0 58 0,0 5924 1,8 7,7 --- 10,7
29.07.2018 21,5 22,1 21,3 21,9 29,2 14,6 75 0,2 5316 1,9 9,3 --- 10,5
28.07.2018 23,2 24,1 23,6 24,3 30,6 17,2 60 32,9 4226 2,7 24,0 --- 10,7
27.07.2018 23,8 25,6 25,5 26,4 33,7 15,5 46 0,0 6437 2,1 9,1 --- 11,1
26.07.2018 23,8 25,9 25,8 26,5 34,1 15,6 52 0,0 7486 2,1 9,7 --- 11,7
25.07.2018 23,5 25,7 25,5 26,3 34,4 16,4 54 0,0 6571 1,7 7,4 --- 10,0
24.07.2018 22,2 24,4 23,6 24,4 34,0 13,5 59 0,0 7763 1,3 8,7 --- 11,6
23.07.2018 21,3 22,7 21,1 21,7 29,1 13,6 67 0,0 7637 1,7 7,8 --- 11,5
22.07.2018 21,4 22,6 21,2 21,4 26,7 17,4 75 6,9 4484 2,0 10,9 --- 9,7
21.07.2018 21,7 22,8 22,0 22,8 27,8 16,8 49 0,0 3691 1,6 6,9 --- 9,2
20.07.2018 21,8 23,2 21,4 22,1 30,0 11,1 49 0,0 6442 1,3 7,8 --- 11,2
19.07.2018 21,6 22,9 18,6 19,4 27,4 9,4 57 0,0 7986 1,6 7,3 --- 11,5
18.07.2018 22,2 23,7 20,0 20,4 26,0 13,7 62 0,0 7651 2,8 9,0 --- 11,6
17.07.2018 22,0 23,9 21,8 22,4 30,9 12,5 57 0,0 7343 2,0 9,8 --- 10,8
16.07.2018 21,2 23,2 20,7 21,3 30,0 10,0 57 0,0 7888 1,4 6,7 --- 12,1
15.07.2018 20,6 22,3 18,6 19,3 27,4 9,9 64 0,0 8232 1,7 6,4 --- 12,0
14.07.2018 20,1 21,5 18,6 19,2 27,2 10,5 73 0,0 6288 1,5 7,6 --- 11,5
13.07.2018 19,5 21,3 19,0 19,7 25,9 12,8 70 0,0 8036 2,1 10,6 --- 11,5
12.07.2018 17,9 18,7 17,9 18,0 25,0 12,3 83 0,8 4676 2,0 11,0 --- 9,5
11.07.2018 17,4 17,2 14,4 14,5 17,7 12,2 95 1,4 2699 1,6 6,1 --- 7,7
10.07.2018 19,1 18,8 14,1 14,0 16,8 12,4 85 12,0 2447 2,5 7,5 --- 7,1
09.07.2018 20,1 21,0 16,3 17,0 23,7 9,7 71 0,0 5645 2,4 11,3 --- 10,0
08.07.2018 20,2 21,5 16,8 17,8 25,4 9,2 63 0,0 7961 2,4 8,4 --- 11,3
07.07.2018 19,9 21,3 16,4 17,6 25,1 7,7 54 0,0 8336 2,2 9,7 --- 11,9
06.07.2018 20,1 20,9 17,3 18,0 25,1 12,1 66 0,0 5358 2,8 11,1 --- 11,2
05.07.2018 21,2 22,9 20,6 21,4 27,9 13,2 68 0,0 5065 1,6 8,1 --- 11,4
04.07.2018 21,0 22,8 20,3 21,1 31,1 8,3 55 0,0 6373 1,3 7,8 --- 11,5
03.07.2018 20,6 22,5 17,9 18,9 28,6 6,3 51 0,0 8606 1,2 5,4 --- 12,2
02.07.2018 20,0 21,6 17,1 18,1 25,6 7,5 46 0,0 8715 1,8 9,3 --- 12,3
01.07.2018 20,0 21,2 16,4 17,4 23,2 10,2 44 0,0 8885 3,1 11,4 --- 12,4
30.06.2018 20,6 22,4 18,4 19,0 24,7 12,5 53 0,0 8874 3,0 11,4 --- 12,4
29.06.2018 20,2 22,7 21,0 21,7 28,6 14,7 57 0,0 8501 2,3 7,9 --- 12,3
28.06.2018 18,5 20,1 18,0 18,9 26,3 9,4 68 0,0 6923 2,4 10,6 --- 12,3
27.06.2018 17,6 19,1 15,9 16,8 24,4 8,8 73 0,0 6315 1,9 9,7 --- 10,2
26.06.2018 16,9 17,9 14,9 15,3 21,2 11,9 85 0,0 4911 2,0 5,9 --- 9,8
25.06.2018 16,2 16,9 15,1 15,3 19,1 11,8 85 0,2 3800 2,4 7,1 --- 10,4
24.06.2018 15,3 14,9 12,2 12,5 15,5 7,9 85 0,2 3021 2,4 7,5 --- 8,6
23.06.2018 15,4 14,4 12,4 12,6 17,8 9,6 78 0,1 3413 3,6 11,2 --- 8,2
22.06.2018 17,0 15,8 10,8 11,2 15,9 8,4 87 6,0 4192 3,8 11,0 --- 7,9
21.06.2018 19,9 20,5 15,7 16,1 23,3 8,5 75 2,4 6099 3,9 17,1 --- 10,0
20.06.2018 19,9 22,0 20,5 20,6 28,8 13,1 75 0,0 6381 1,5 8,5 --- 11,6
19.06.2018 19,2 20,0 17,9 18,4 21,8 12,9 83 0,0 2926 1,6 7,2 --- 8,5
18.06.2018 19,5 20,6 17,7 17,7 23,3 13,2 73 0,0 4141 2,3 7,8 --- 10,3
17.06.2018 20,2 21,6 18,0 18,1 22,5 14,3 71 0,1 5434 2,4 8,7 --- 10,5
16.06.2018 19,8 21,8 20,4 20,5 25,8 14,7 68 0,0 6335 2,0 7,8 --- 11,9
15.06.2018 18,9 20,2 17,6 17,4 23,4 14,1 85 1,4 4715 1,2 5,6 --- 8,4
14.06.2018 17,3 18,6 14,9 14,6 22,4 4,8 73 0,2 7501 1,9 8,5 --- 11,0
13.06.2018 17,0 16,5 13,2 13,6 15,5 10,7 78 0,0 2470 2,5 9,0 --- 7,8
12.06.2018 18,2 18,1 14,9 15,1 19,6 12,4 80 1,3 3962 2,5 6,6 --- 10,4
11.06.2018 19,2 19,6 17,1 17,6 22,3 14,3 87 0,0 4290 1,6 6,1 --- 8,7
10.06.2018 20,6 21,5 19,5 20,1 25,5 15,7 90 8,2 3769 1,4 6,1 --- 7,1
09.06.2018 20,9 23,0 21,7 22,4 29,7 15,1 79 0,4 6672 1,3 7,8 --- 11,2
08.06.2018 20,5 22,0 20,4 20,9 29,0 15,5 86 0,0 4265 1,1 7,6 --- 7,7
07.06.2018 20,5 22,7 20,7 21,8 29,8 14,5 67 0,0 6418 1,2 6,4 --- 9,2
06.06.2018 19,4 21,2 19,0 19,6 27,4 9,7 72 0,0 8056 2,0 7,5 --- 12,1
05.06.2018 19,1 19,9 16,6 17,1 22,7 12,9 88 0,0 5015 1,7 6,7 --- 9,0
04.06.2018 19,3 21,0 18,3 18,9 26,7 11,1 81 0,0 7774 1,4 7,1 --- 11,2
03.06.2018 18,8 19,6 17,7 18,2 23,7 12,9 87 0,0 4694 1,1 4,8 --- 10,6
02.06.2018 19,4 20,0 18,4 18,6 22,3 15,6 87 0,0 3040 1,7 5,4 --- 7,3
01.06.2018 20,5 21,9 20,6 20,4 25,2 16,2 84 0,0 6050 2,0 7,6 --- 11,1
31.05.2018 20,6 22,9 21,4 21,8 30,3 14,4 82 19,4 7132 1,2 12,7 --- 11,6
30.05.2018 20,3 22,2 21,2 21,3 28,7 16,2 84 0,6 6037 1,2 4,6 --- 10,1
29.05.2018 20,6 23,0 21,7 21,9 30,7 14,7 78 9,1 6140 1,9 9,8 --- 8,6
28.05.2018 19,8 22,6 22,1 22,4 30,8 12,8 70 0,0 7210 1,6 10,1 --- 11,1
27.05.2018 19,2 21,4 19,2 19,6 28,8 10,5 71 0,0 6350 1,7 8,4 --- 10,6
26.05.2018 18,3 21,1 20,7 21,2 28,5 12,3 64 0,0 7901 1,8 8,3 --- 11,7
25.05.2018 16,7 18,3 19,0 18,9 24,3 15,2 82 0,3 4478 2,2 7,9 --- 11,6
24.05.2018 16,8 17,6 16,9 17,3 19,1 14,7 77 0,8 2280 2,6 10,6 --- 8,3
23.05.2018 17,4 19,2 18,9 19,0 25,8 13,6 67 0,6 6653 2,5 11,1 --- 10,4
22.05.2018 17,3 19,1 16,9 17,5 26,1 9,3 69 1,4 5551 1,8 13,5 --- 7,9
21.05.2018 16,5 18,5 17,3 17,9 24,1 8,6 50 0,0 8132 3,5 11,9 --- 11,7
20.05.2018 15,3 17,2 15,2 15,4 24,3 5,3 62 0,0 7792 2,6 9,2 --- 11,5
19.05.2018 14,1 15,2 12,4 12,6 18,4 7,8 76 0,0 4637 1,4 6,6 --- 10,2
18.05.2018 13,9 13,9 10,4 10,5 15,4 7,9 82 0,0 2746 2,5 8,0 --- 8,3
17.05.2018 15,0 15,9 12,0 12,1 16,6 8,1 79 0,1 6945 4,9 13,4 --- 10,0
16.05.2018 15,4 16,3 13,6 13,8 17,9 10,8 94 3,4 3641 2,8 8,9 --- 9,0
15.05.2018 16,1 17,3 15,3 16,4 23,0 8,7 57 2,4 5627 2,7 13,9 --- 10,8
14.05.2018 16,8 19,0 18,9 19,5 26,8 11,6 59 0,0 7464 3,8 14,1 --- 11,1
13.05.2018 16,0 17,9 17,2 18,0 27,3 10,8 79 0,0 5986 2,7 11,4 --- 8,7
12.05.2018 15,4 17,4 16,8 18,0 24,4 10,5 67 0,0 6759 1,6 6,9 --- 10,9
11.05.2018 14,5 15,7 14,3 14,5 19,5 10,7 78 0,0 4790 2,1 7,0 --- 9,2
10.05.2018 15,4 16,6 14,1 15,1 20,6 10,4 83 1,3 4439 2,7 9,6 --- 7,9
09.05.2018 15,2 17,2 17,3 19,1 26,1 8,9 60 0,0 7373 2,2 11,0 --- 11,3
08.05.2018 14,5 16,2 15,9 17,7 24,9 8,0 56 0,0 7664 2,5 12,2 --- 11,3
07.05.2018 13,9 15,6 15,0 16,8 24,7 8,1 55 0,0 7749 2,7 9,5 --- 11,4
06.05.2018 13,2 14,7 13,6 15,3 23,5 4,3 55 0,0 7646 2,3 9,7 --- 11,3
05.05.2018 12,6 13,7 12,2 13,5 21,3 4,1 55 0,0 7678 2,7 10,3 --- 11,3
04.05.2018 12,2 13,1 10,6 11,4 19,3 2,2 63 0,0 7445 2,2 8,0 --- 11,2
03.05.2018 12,2 13,1 10,5 11,4 16,9 5,3 68 0,0 6269 2,5 8,4 --- 10,9
02.05.2018 11,6 11,9 9,2 9,9 16,5 2,7 65 0,0 5098 1,8 5,6 --- 10,0
01.05.2018 12,6 13,3 9,2 9,6 14,1 3,9 57 0,0 6475 5,6 18,9 --- 10,1
30.04.2018 13,6 14,5 14,2 15,1 18,6 10,5 65 0,0 4466 5,5 16,6 --- 8,8
29.04.2018 13,4 14,9 15,1 16,2 23,8 6,7 70 0,0 5603 2,2 10,8 --- 10,3
28.04.2018 12,3 13,6 12,4 13,0 18,5 7,4 67 0,1 6429 3,0 10,1 --- 9,8
27.04.2018 11,3 11,7 9,9 10,6 17,6 4,1 69 0,0 6013 2,2 8,9 --- 10,7
26.04.2018 11,4 11,2 8,0 8,5 13,1 5,5 84 3,9 4539 3,4 11,8 --- 7,5
25.04.2018 12,6 12,9 11,7 12,4 16,1 6,3 81 3,3 3777 4,1 16,1 --- 7,1
24.04.2018 12,7 12,9 11,3 11,8 16,9 6,8 84 0,0 3685 2,6 10,6 --- 10,9
23.04.2018 14,3 15,2 14,5 15,2 18,7 8,8 83 0,1 4631 2,7 10,1 --- 8,5
22.04.2018 14,2 15,3 15,1 15,8 26,8 7,0 80 4,0 5394 2,2 13,4 --- 8,7
21.04.2018 14,6 15,9 15,5 16,6 23,3 9,6 76 0,0 6293 1,8 6,0 --- 10,2
20.04.2018 14,2 15,9 17,7 19,2 28,7 9,2 62 0,0 6353 1,8 6,5 --- 10,4
19.04.2018 13,7 15,2 17,2 18,9 26,7 10,5 54 0,0 6591 2,0 6,2 --- 10,6
18.04.2018 13,0 14,6 15,6 17,0 26,0 8,6 65 0,0 6418 1,8 5,7 --- 10,5
17.04.2018 12,0 13,1 12,6 13,9 22,7 4,9 74 0,0 5854 1,0 4,5 --- 10,0
16.04.2018 12,3 13,6 13,6 14,3 19,1 9,6 83 0,8 4431 1,9 7,6 --- 9,1
15.04.2018 11,3 12,8 13,3 13,8 19,8 9,6 87 0,7 4284 1,2 5,4 --- 8,3
14.04.2018 10,4 11,6 12,7 13,4 18,1 9,4 86 0,1 3488 2,2 8,5 --- 8,0
13.04.2018 10,4 10,8 11,0 11,7 14,0 10,5 94 20,4 601 2,9 10,9 --- 0,3
12.04.2018 10,5 11,7 14,2 14,8 20,6 9,3 77 0,0 4665 3,0 11,2 --- 8,2
11.04.2018 10,5 11,3 12,0 12,8 17,2 6,9 79 0,0 3426 2,2 7,6 --- 9,1
10.04.2018 10,7 12,3 15,5 16,7 23,5 8,9 59 0,0 5679 2,6 10,0 --- 10,0
09.04.2018 9,8 11,2 14,1 15,4 22,5 6,9 61 0,4 3791 1,9 6,6 --- 9,2
08.04.2018 8,6 10,2 14,1 15,8 25,1 7,5 48 0,0 5694 1,8 7,0 --- 9,7
07.04.2018 6,7 7,3 10,7 12,4 22,6 2,7 45 0,0 6086 2,6 9,7 --- 9,8
06.04.2018 6,0 5,8 5,5 6,2 14,2 -1,5 64 0,2 6080 2,8 9,5 --- 9,6
05.04.2018 7,7 7,8 7,0 7,7 12,5 0,3 80 0,1 2788 5,4 16,0 --- 6,8
04.04.2018 8,1 9,4 11,8 12,8 18,5 8,2 69 0,2 3881 3,8 13,3 --- 8,6
03.04.2018 7,0 8,6 12,0 12,8 18,3 8,0 65 0,0 4000 3,6 11,7 --- 7,6
02.04.2018 4,9 5,4 6,6 7,0 12,3 0,4 75 0,1 3585 2,9 10,8 --- 8,6
01.04.2018 4,9 4,8 3,4 3,7 6,4 1,5 94 0,6 1902 2,6 10,3 --- 6,6
31.03.2018 5,4 5,7 6,0 6,6 9,7 3,7 91 0,0 1460 2,4 6,7 --- 3,3
30.03.2018 4,5 4,9 5,8 6,4 11,8 -0,1 76 0,1 4460 2,7 9,5 --- 8,2
29.03.2018 5,0 5,2 3,9 4,4 8,7 0,5 87 1,6 2761 4,0 16,1 --- 7,2
28.03.2018 5,2 5,9 6,5 6,9 9,7 4,9 97 1,5 1006 2,9 14,6 --- 2,4
27.03.2018 4,2 4,7 4,5 4,6 10,0 -0,3 86 0,2 3439 2,2 7,5 --- 6,0
26.03.2018 4,3 4,7 4,3 5,0 9,8 0,3 80 0,0 2861 2,0 9,1 --- 6,4
25.03.2018 3,4 4,2 4,2 5,3 12,0 -1,4 78 0,0 4423 1,4 7,0 --- 8,8
24.03.2018 2,0 2,9 5,3 6,1 10,7 2,9 79 0,0 3208 1,4 6,5 --- 8,0
23.03.2018 0,5 -0,1 4,1 4,7 7,3 1,6 98 0,7 1303 1,7 5,5 --- 3,8
22.03.2018 0,5 -0,2 1,4 2,0 4,4 0,1 94 1,4 655 2,3 7,4 --- 0,4
21.03.2018 0,5 -0,3 -0,7 0,1 5,7 -6,2 75 0,0 4674 1,7 8,2 --- 9,0
20.03.2018 0,7 -0,2 -1,7 -0,9 5,0 -6,6 75 0,3 1834 2,8 12,6 --- 5,0
19.03.2018 0,9 -0,1 -2,9 -2,7 2,0 -6,5 52 0,0 4982 3,9 13,1 --- 9,0
18.03.2018 1,3 0,3 -3,5 -3,5 -1,4 -5,3 57 0,0 3752 7,2 16,0 --- 7,7
17.03.2018 2,0 1,0 -3,9 -3,9 -1,3 -5,2 79 0,1 703 6,5 15,5 --- 0,3
16.03.2018 3,4 2,9 1,4 1,7 4,6 -1,4 95 10,1 617 2,9 11,4 --- ---
15.03.2018 3,6 3,5 3,9 4,5 8,9 0,9 80 0,1 4070 5,0 12,5 --- 7,9
14.03.2018 4,6 4,7 3,4 4,0 7,0 1,5 87 1,4 1872 2,1 5,8 --- 6,2
13.03.2018 5,5 6,3 6,9 7,4 9,3 3,6 89 4,6 1128 4,5 13,2 --- 4,0
12.03.2018 5,4 6,9 9,3 10,2 13,4 8,3 90 5,0 1400 2,5 9,9 --- 5,0
11.03.2018 3,5 6,3 11,2 12,4 17,0 8,0 84 0,0 2402 2,7 9,5 --- 7,6
10.03.2018 0,5 3,8 9,1 9,7 15,0 4,8 91 2,1 2509 2,9 8,6 --- 6,3
09.03.2018 -0,2 1,3 4,2 4,9 8,7 1,4 84 0,1 3301 3,8 10,8 --- 7,3
08.03.2018 -0,2 0,8 4,4 5,1 8,4 2,1 84 6,5 2319 4,1 12,7 --- 6,1
07.03.2018 -0,2 -0,1 4,0 4,8 10,1 0,5 87 0,0 2158 2,4 9,6 --- 5,4
06.03.2018 -0,3 -0,2 1,6 2,7 9,0 -2,6 88 0,0 2595 1,0 3,2 --- 7,4
05.03.2018 -0,4 -0,3 4,8 5,9 11,0 -0,4 81 0,0 3140 2,9 8,4 --- 6,9
04.03.2018 -0,8 -1,2 0,4 0,7 6,6 -4,3 87 0,0 2025 2,7 8,7 --- 5,7
03.03.2018 -1,4 -2,6 -4,4 -4,3 -2,0 -6,8 68 0,0 1090 4,0 9,3 --- 2,9
02.03.2018 -1,7 -3,4 -6,4 -6,1 -1,2 -10,1 59 0,0 3196 4,3 11,9 --- 7,1
01.03.2018 -1,4 -3,3 -7,0 -6,9 -2,6 -10,2 55 0,0 3480 6,3 14,2 --- 7,5
28.02.2018 -1,1 -3,1 -9,8 -9,5 -7,7 -11,4 65 0,0 2110 4,1 11,9 --- 6,4
27.02.2018 -0,6 -2,0 -9,1 -8,1 -3,2 -14,9 70 0,1 3463 1,7 7,0 --- 7,4
26.02.2018 -0,5 -2,2 -6,1 -5,7 -2,9 -9,1 79 0,2 2370 3,3 12,7 --- 6,4
25.02.2018 -0,1 -2,2 -5,6 -5,3 -1,7 -8,2 59 0,0 2985 3,6 10,7 --- 7,0
24.02.2018 0,2 -1,6 -3,8 -3,2 0,8 -6,0 58 0,0 1801 4,2 12,6 --- 6,5
23.02.2018 0,4 -0,7 -2,8 -2,0 1,6 -4,7 61 0,0 3398 3,4 10,9 --- 7,5
22.02.2018 0,5 -0,2 -1,8 -0,9 1,9 -4,2 72 0,0 2085 3,0 10,4 --- 6,5
21.02.2018 0,6 -0,2 -0,7 -0,1 3,0 -3,4 79 0,0 2686 2,1 6,7 --- 7,0
20.02.2018 0,6 -0,2 -1,2 -0,5 3,8 -3,2 87 0,0 2034 1,4 8,6 --- 5,0
19.02.2018 0,6 -0,1 -0,9 -0,1 2,7 -2,6 85 0,0 1657 1,7 6,5 --- 5,8
18.02.2018 0,6 -0,1 -1,3 -0,6 5,4 -4,3 89 0,1 2414 1,8 7,2 --- 6,4
17.02.2018 0,7 -0,1 -1,4 -0,5 2,6 -3,2 97 0,0 1262 1,1 4,1 --- 4,9
16.02.2018 0,7 0,0 0,6 1,5 6,2 -1,4 91 0,4 2082 2,3 8,5 --- 5,3
15.02.2018 0,7 -0,1 -0,4 0,3 1,7 -2,1 84 2,0 663 3,9 12,6 --- 1,6
14.02.2018 0,8 -0,1 -3,0 -1,7 4,0 -6,1 71 0,2 2819 2,3 9,2 --- 6,9
13.02.2018 0,8 0,0 -2,3 -0,9 3,9 -4,7 82 0,2 2622 2,6 9,6 --- 6,5
12.02.2018 0,7 -0,1 -0,5 0,4 2,9 -3,1 92 1,3 1539 2,6 8,9 --- 4,5
11.02.2018 0,7 -0,2 0,6 1,4 2,7 0,2 91 0,9 783 4,3 15,1 --- 2,7
10.02.2018 0,7 -0,3 -0,4 0,3 2,4 -2,3 95 0,1 709 2,4 7,6 --- 1,5
09.02.2018 0,8 -0,3 -3,1 -2,8 0,3 -6,5 92 0,1 1183 2,5 6,7 --- 3,5
08.02.2018 1,1 0,1 -3,9 -3,3 -0,4 -5,1 90 0,1 1202 1,0 3,1 --- 4,3
07.02.2018 1,3 0,2 -1,7 -1,3 1,6 -3,3 86 0,1 1712 1,8 6,2 --- 5,1
06.02.2018 1,5 0,3 -3,3 -2,7 -0,6 -5,3 82 0,1 1351 2,4 6,2 --- 4,3
05.02.2018 1,9 0,8 -3,8 -3,0 0,6 -7,1 88 0,2 1019 2,0 8,8 --- 2,7
04.02.2018 2,6 1,6 -2,0 -1,5 0,9 -5,4 94 2,0 725 2,6 7,1 --- 1,7
03.02.2018 3,2 2,6 1,6 2,1 3,3 0,7 87 1,1 845 2,2 6,9 --- 3,0
02.02.2018 3,1 2,2 1,7 2,1 3,7 0,2 93 1,2 777 3,5 9,4 --- 1,9
01.02.2018 4,0 3,1 1,8 2,6 5,5 0,4 86 1,4 1541 3,4 10,0 --- 4,5
31.01.2018 4,4 4,2 5,6 6,3 9,2 1,8 91 3,4 556 5,0 14,7 --- 0,3
30.01.2018 5,1 4,5 3,4 4,3 6,6 -0,1 81 0,3 1603 3,4 11,0 --- 4,5
29.01.2018 5,8 6,5 8,5 9,3 10,4 6,2 84 1,2 532 5,7 19,2 --- 0,8
28.01.2018 4,6 4,8 6,5 7,2 9,3 4,7 88 0,2 600 4,6 12,0 --- 0,9
27.01.2018 4,4 4,0 3,6 4,1 8,2 2,5 97 0,2 1248 2,0 9,5 --- 3,4
26.01.2018 5,4 5,4 4,7 5,4 7,7 1,5 99 2,0 722 0,8 3,1 --- 1,6
25.01.2018 5,5 6,3 7,6 8,3 10,7 6,3 95 7,6 374 2,1 10,5 --- ---
24.01.2018 4,2 5,3 8,1 8,9 11,0 6,5 94 0,5 572 3,6 11,6 --- 1,3
23.01.2018 2,2 2,3 4,6 5,5 6,8 4,0 93 2,1 601 3,2 10,8 --- 0,8
22.01.2018 1,6 0,8 1,2 1,9 4,5 0,4 99 2,7 509 2,9 8,8 --- 0,5
21.01.2018 1,6 0,8 0,3 0,8 2,7 0,2 99 8,0 815 1,5 7,1 --- 3,1
20.01.2018 1,7 0,9 0,5 1,2 2,4 -0,6 97 2,3 1088 1,9 7,5 --- 3,3
19.01.2018 1,9 1,0 0,6 1,6 3,1 0,0 92 5,0 556 1,7 8,2 --- 1,4
18.01.2018 2,0 1,4 2,3 3,2 8,1 1,2 87 1,9 737 7,2 30,4 --- 1,9
17.01.2018 2,1 1,0 0,4 1,1 2,7 0,0 96 6,4 745 4,4 19,7 --- 2,2
16.01.2018 2,5 2,0 2,8 3,7 5,8 1,4 90 7,6 579 4,8 18,0 --- 1,2
15.01.2018 2,1 0,8 0,9 1,7 4,5 -1,7 86 0,3 436 5,2 17,6 --- 0,2
14.01.2018 2,9 1,7 -0,2 0,6 2,6 -1,1 79 0,0 676 3,2 10,7 --- 2,2
13.01.2018 4,1 3,6 2,7 3,2 4,4 0,7 95 0,1 400 2,3 7,9 --- 0,7
12.01.2018 4,3 4,1 3,7 4,2 4,9 3,2 100 0,2 331 0,8 3,6 --- ---
11.01.2018 3,6 3,5 4,1 4,8 7,7 2,8 99 0,2 636 0,9 4,0 --- 1,8
10.01.2018 3,4 2,9 3,4 4,4 8,8 2,0 97 0,5 698 1,9 8,3 --- 2,0
09.01.2018 3,2 2,5 2,5 3,2 5,1 2,0 94 2,2 487 2,9 8,1 --- 0,2
08.01.2018 3,3 2,3 1,3 1,7 2,6 1,0 90 0,0 974 3,7 10,1 --- 2,9
07.01.2018 4,0 3,2 2,0 2,4 4,8 1,2 94 0,5 259 2,9 8,2 --- ---
06.01.2018 4,3 3,6 3,5 4,6 7,2 1,6 96 0,2 549 1,5 6,3 --- 1,5
05.01.2018 5,0 4,9 6,4 7,5 9,3 5,9 80 0,2 523 4,5 14,9 --- 1,2
04.01.2018 4,7 4,6 5,8 6,6 9,3 5,4 88 2,1 342 4,6 15,3 --- ---
03.01.2018 4,6 4,3 5,2 6,0 7,9 4,3 88 11,4 509 7,4 20,6 --- 1,2
02.01.2018 4,6 4,0 3,5 4,1 5,5 2,5 94 5,0 399 3,4 10,0 --- 0,4
01.01.2018 5,7 5,5 5,7 6,6 11,4 3,8 84 3,9 633 5,4 16,3 --- 1,6

Mittelwerte (Temperaturen, Strahlung, rel. Feuchte, Wind), Summe (Regen) für 2018
11,4 11,9 10,8 11,5 76 291 4.064 2,6

Landesbetrieb Landwirtschaft Hessen 2009

      Werte bis 5 Uhr SommerzeitCSV-Datei: Frankenhausen18.csvDiagramm: Frankenhausen